sensor_id;sensor_type;location;lat;lon;timestamp;temperature;humidity
74923;HTU21D;64715;44.760;37.678;2023-04-27T00:00:01;10.26;66.64
74923;HTU21D;64715;44.760;37.678;2023-04-27T00:01:09;10.25;66.94
74923;HTU21D;64715;44.760;37.678;2023-04-27T00:02:12;10.25;66.87
74923;HTU21D;64715;44.760;37.678;2023-04-27T00:03:13;10.27;66.72
74923;HTU21D;64715;44.760;37.678;2023-04-27T00:04:15;10.25;66.84
74923;HTU21D;64715;44.760;37.678;2023-04-27T00:05:16;10.25;66.76
74923;HTU21D;64715;44.760;37.678;2023-04-27T00:06:17;10.24;67.09
74923;HTU21D;64715;44.760;37.678;2023-04-27T00:07:18;10.24;66.69
74923;HTU21D;64715;44.760;37.678;2023-04-27T00:08:19;10.24;67.10
74923;HTU21D;64715;44.760;37.678;2023-04-27T00:09:20;10.24;66.93
74923;HTU21D;64715;44.760;37.678;2023-04-27T00:10:21;10.27;67.26
74923;HTU21D;64715;44.760;37.678;2023-04-27T00:11:22;10.25;67.07
74923;HTU21D;64715;44.760;37.678;2023-04-27T00:12:23;10.27;67.00
74923;HTU21D;64715;44.760;37.678;2023-04-27T00:13:24;10.27;66.91
74923;HTU21D;64715;44.760;37.678;2023-04-27T00:14:25;10.27;67.08
74923;HTU21D;64715;44.760;37.678;2023-04-27T00:15:28;10.29;67.07
74923;HTU21D;64715;44.760;37.678;2023-04-27T00:16:29;10.29;67.09
74923;HTU21D;64715;44.760;37.678;2023-04-27T00:17:30;10.30;66.94
74923;HTU21D;64715;44.760;37.678;2023-04-27T00:18:33;10.28;67.14
74923;HTU21D;64715;44.760;37.678;2023-04-27T00:19:33;10.29;67.17
74923;HTU21D;64715;44.760;37.678;2023-04-27T00:20:35;10.28;66.88
74923;HTU21D;64715;44.760;37.678;2023-04-27T00:21:36;10.28;67.03
74923;HTU21D;64715;44.760;37.678;2023-04-27T00:22:40;10.26;66.97
74923;HTU21D;64715;44.760;37.678;2023-04-27T00:23:41;10.28;67.00
74923;HTU21D;64715;44.760;37.678;2023-04-27T00:24:42;10.25;67.22
74923;HTU21D;64715;44.760;37.678;2023-04-27T00:25:43;10.25;67.18
74923;HTU21D;64715;44.760;37.678;2023-04-27T00:26:43;10.26;67.17
74923;HTU21D;64715;44.760;37.678;2023-04-27T00:27:45;10.25;67.21
74923;HTU21D;64715;44.760;37.678;2023-04-27T00:28:47;10.23;67.27
74923;HTU21D;64715;44.760;37.678;2023-04-27T00:29:47;10.23;67.25
74923;HTU21D;64715;44.760;37.678;2023-04-27T00:30:49;10.23;67.49
74923;HTU21D;64715;44.760;37.678;2023-04-27T00:31:50;10.22;67.30
74923;HTU21D;64715;44.760;37.678;2023-04-27T00:32:51;10.23;67.07
74923;HTU21D;64715;44.760;37.678;2023-04-27T00:33:52;10.22;67.41
74923;HTU21D;64715;44.760;37.678;2023-04-27T00:34:53;10.21;67.74
74923;HTU21D;64715;44.760;37.678;2023-04-27T00:35:58;10.21;67.72
74923;HTU21D;64715;44.760;37.678;2023-04-27T00:37:00;10.20;67.49
74923;HTU21D;64715;44.760;37.678;2023-04-27T00:38:01;10.19;67.59
74923;HTU21D;64715;44.760;37.678;2023-04-27T00:39:02;10.20;67.81
74923;HTU21D;64715;44.760;37.678;2023-04-27T00:40:06;10.19;67.52
74923;HTU21D;64715;44.760;37.678;2023-04-27T00:41:07;10.19;67.65
74923;HTU21D;64715;44.760;37.678;2023-04-27T00:42:08;10.19;67.70
74923;HTU21D;64715;44.760;37.678;2023-04-27T00:43:13;10.19;67.56
74923;HTU21D;64715;44.760;37.678;2023-04-27T00:44:24;10.19;67.56
74923;HTU21D;64715;44.760;37.678;2023-04-27T00:45:25;10.18;67.43
74923;HTU21D;64715;44.760;37.678;2023-04-27T00:46:28;10.16;67.59
74923;HTU21D;64715;44.760;37.678;2023-04-27T00:47:29;10.16;67.60
74923;HTU21D;64715;44.760;37.678;2023-04-27T00:48:30;10.19;67.30
74923;HTU21D;64715;44.760;37.678;2023-04-27T00:49:33;10.15;67.37
74923;HTU21D;64715;44.760;37.678;2023-04-27T00:50:34;10.15;67.71
74923;HTU21D;64715;44.760;37.678;2023-04-27T00:51:35;10.15;67.40
74923;HTU21D;64715;44.760;37.678;2023-04-27T00:52:37;10.15;67.84
74923;HTU21D;64715;44.760;37.678;2023-04-27T00:53:38;10.15;67.67
74923;HTU21D;64715;44.760;37.678;2023-04-27T00:54:39;10.16;67.67
74923;HTU21D;64715;44.760;37.678;2023-04-27T00:55:40;10.13;67.50
74923;HTU21D;64715;44.760;37.678;2023-04-27T00:56:41;10.14;67.81
74923;HTU21D;64715;44.760;37.678;2023-04-27T00:57:42;10.14;67.51
74923;HTU21D;64715;44.760;37.678;2023-04-27T00:58:44;10.14;67.88
74923;HTU21D;64715;44.760;37.678;2023-04-27T00:59:46;10.13;68.18
74923;HTU21D;64715;44.760;37.678;2023-04-27T01:00:47;10.11;67.97
74923;HTU21D;64715;44.760;37.678;2023-04-27T01:01:49;10.10;68.10
74923;HTU21D;64715;44.760;37.678;2023-04-27T01:02:51;10.10;68.06
74923;HTU21D;64715;44.760;37.678;2023-04-27T01:03:52;10.10;67.71
74923;HTU21D;64715;44.760;37.678;2023-04-27T01:04:54;10.10;68.00
74923;HTU21D;64715;44.760;37.678;2023-04-27T01:05:55;10.10;68.12
74923;HTU21D;64715;44.760;37.678;2023-04-27T01:06:58;10.11;68.32
74923;HTU21D;64715;44.760;37.678;2023-04-27T01:08:02;10.10;68.23
74923;HTU21D;64715;44.760;37.678;2023-04-27T01:09:04;10.11;68.32
74923;HTU21D;64715;44.760;37.678;2023-04-27T01:10:07;10.10;68.04
74923;HTU21D;64715;44.760;37.678;2023-04-27T01:11:09;10.10;68.20
74923;HTU21D;64715;44.760;37.678;2023-04-27T01:12:13;10.10;68.19
74923;HTU21D;64715;44.760;37.678;2023-04-27T01:13:14;10.09;68.19
74923;HTU21D;64715;44.760;37.678;2023-04-27T01:14:15;10.10;68.35
74923;HTU21D;64715;44.760;37.678;2023-04-27T01:15:18;10.11;68.39
74923;HTU21D;64715;44.760;37.678;2023-04-27T01:16:19;10.11;68.15
74923;HTU21D;64715;44.760;37.678;2023-04-27T01:17:20;10.11;68.17
74923;HTU21D;64715;44.760;37.678;2023-04-27T01:18:21;10.10;68.25
74923;HTU21D;64715;44.760;37.678;2023-04-27T01:19:23;10.10;68.49
74923;HTU21D;64715;44.760;37.678;2023-04-27T01:20:25;10.10;68.42
74923;HTU21D;64715;44.760;37.678;2023-04-27T01:21:30;10.13;68.50
74923;HTU21D;64715;44.760;37.678;2023-04-27T01:22:32;10.12;68.49
74923;HTU21D;64715;44.760;37.678;2023-04-27T01:23:33;10.11;68.20
74923;HTU21D;64715;44.760;37.678;2023-04-27T01:24:34;10.14;68.37
74923;HTU21D;64715;44.760;37.678;2023-04-27T01:25:39;10.14;68.49
74923;HTU21D;64715;44.760;37.678;2023-04-27T01:26:40;10.14;68.56
74923;HTU21D;64715;44.760;37.678;2023-04-27T01:27:41;10.14;68.55
74923;HTU21D;64715;44.760;37.678;2023-04-27T01:28:45;10.15;68.65
74923;HTU21D;64715;44.760;37.678;2023-04-27T01:29:46;10.14;68.50
74923;HTU21D;64715;44.760;37.678;2023-04-27T01:30:46;10.15;68.93
74923;HTU21D;64715;44.760;37.678;2023-04-27T01:31:48;10.16;68.59
74923;HTU21D;64715;44.760;37.678;2023-04-27T01:32:49;10.19;68.64
74923;HTU21D;64715;44.760;37.678;2023-04-27T01:33:53;10.19;68.58
74923;HTU21D;64715;44.760;37.678;2023-04-27T01:34:54;10.20;68.67
74923;HTU21D;64715;44.760;37.678;2023-04-27T01:35:59;10.20;68.64
74923;HTU21D;64715;44.760;37.678;2023-04-27T01:37:02;10.22;68.68
74923;HTU21D;64715;44.760;37.678;2023-04-27T01:38:03;10.22;68.61
74923;HTU21D;64715;44.760;37.678;2023-04-27T01:39:04;10.25;68.60
74923;HTU21D;64715;44.760;37.678;2023-04-27T01:40:09;10.25;68.78
74923;HTU21D;64715;44.760;37.678;2023-04-27T01:41:10;10.25;68.80
74923;HTU21D;64715;44.760;37.678;2023-04-27T01:42:11;10.26;68.92
74923;HTU21D;64715;44.760;37.678;2023-04-27T01:43:13;10.29;68.66
74923;HTU21D;64715;44.760;37.678;2023-04-27T01:44:14;10.30;68.65
74923;HTU21D;64715;44.760;37.678;2023-04-27T01:45:15;10.33;68.71
74923;HTU21D;64715;44.760;37.678;2023-04-27T01:46:16;10.33;68.83
74923;HTU21D;64715;44.760;37.678;2023-04-27T01:47:17;10.38;68.48
74923;HTU21D;64715;44.760;37.678;2023-04-27T01:48:18;10.36;68.72
74923;HTU21D;64715;44.760;37.678;2023-04-27T01:49:19;10.38;68.86
74923;HTU21D;64715;44.760;37.678;2023-04-27T01:50:21;10.39;68.49
74923;HTU21D;64715;44.760;37.678;2023-04-27T01:51:22;10.42;68.49
74923;HTU21D;64715;44.760;37.678;2023-04-27T01:52:23;10.43;68.46
74923;HTU21D;64715;44.760;37.678;2023-04-27T01:53:24;10.45;68.42
74923;HTU21D;64715;44.760;37.678;2023-04-27T01:54:25;10.46;68.51
74923;HTU21D;64715;44.760;37.678;2023-04-27T01:55:28;10.46;68.30
74923;HTU21D;64715;44.760;37.678;2023-04-27T01:56:29;10.50;68.52
74923;HTU21D;64715;44.760;37.678;2023-04-27T01:57:30;10.51;68.26
74923;HTU21D;64715;44.760;37.678;2023-04-27T01:58:31;10.52;68.39
74923;HTU21D;64715;44.760;37.678;2023-04-27T01:59:32;10.52;68.39
74923;HTU21D;64715;44.760;37.678;2023-04-27T02:00:33;10.53;68.32
74923;HTU21D;64715;44.760;37.678;2023-04-27T02:01:34;10.56;68.33
74923;HTU21D;64715;44.760;37.678;2023-04-27T02:02:35;10.55;68.14
74923;HTU21D;64715;44.760;37.678;2023-04-27T02:03:36;10.55;68.08
74923;HTU21D;64715;44.760;37.678;2023-04-27T02:04:39;10.57;67.93
74923;HTU21D;64715;44.760;37.678;2023-04-27T02:05:42;10.57;68.01
74923;HTU21D;64715;44.760;37.678;2023-04-27T02:06:43;10.59;68.05
74923;HTU21D;64715;44.760;37.678;2023-04-27T02:07:44;10.60;67.99
74923;HTU21D;64715;44.760;37.678;2023-04-27T02:08:45;10.60;67.93
74923;HTU21D;64715;44.760;37.678;2023-04-27T02:09:46;10.59;67.78
74923;HTU21D;64715;44.760;37.678;2023-04-27T02:10:48;10.60;67.62
74923;HTU21D;64715;44.760;37.678;2023-04-27T02:11:50;10.63;67.81
74923;HTU21D;64715;44.760;37.678;2023-04-27T02:12:51;10.63;67.93
74923;HTU21D;64715;44.760;37.678;2023-04-27T02:13:52;10.62;67.73
74923;HTU21D;64715;44.760;37.678;2023-04-27T02:14:53;10.64;67.72
74923;HTU21D;64715;44.760;37.678;2023-04-27T02:15:54;10.63;67.70
74923;HTU21D;64715;44.760;37.678;2023-04-27T02:16:55;10.63;67.55
74923;HTU21D;64715;44.760;37.678;2023-04-27T02:17:56;10.64;67.27
74923;HTU21D;64715;44.760;37.678;2023-04-27T02:18:59;10.62;67.59
74923;HTU21D;64715;44.760;37.678;2023-04-27T02:20:00;10.64;67.34
74923;HTU21D;64715;44.760;37.678;2023-04-27T02:21:01;10.64;67.32
74923;HTU21D;64715;44.760;37.678;2023-04-27T02:22:07;10.65;67.21
74923;HTU21D;64715;44.760;37.678;2023-04-27T02:23:08;10.65;67.36
74923;HTU21D;64715;44.760;37.678;2023-04-27T02:24:09;10.65;67.30
74923;HTU21D;64715;44.760;37.678;2023-04-27T02:25:11;10.66;67.29
74923;HTU21D;64715;44.760;37.678;2023-04-27T02:26:19;10.66;67.26
74923;HTU21D;64715;44.760;37.678;2023-04-27T02:27:20;10.65;66.91
74923;HTU21D;64715;44.760;37.678;2023-04-27T02:28:21;10.66;66.96
74923;HTU21D;64715;44.760;37.678;2023-04-27T02:29:22;10.66;67.17
74923;HTU21D;64715;44.760;37.678;2023-04-27T02:30:23;10.66;67.28
74923;HTU21D;64715;44.760;37.678;2023-04-27T02:31:24;10.66;66.78
74923;HTU21D;64715;44.760;37.678;2023-04-27T02:32:25;10.64;66.75
74923;HTU21D;64715;44.760;37.678;2023-04-27T02:33:26;10.66;66.89
74923;HTU21D;64715;44.760;37.678;2023-04-27T02:34:27;10.69;67.07
74923;HTU21D;64715;44.760;37.678;2023-04-27T02:35:28;10.69;66.94
74923;HTU21D;64715;44.760;37.678;2023-04-27T02:36:29;10.70;66.77
74923;HTU21D;64715;44.760;37.678;2023-04-27T02:37:31;10.71;66.82
74923;HTU21D;64715;44.760;37.678;2023-04-27T02:38:32;10.71;67.01
74923;HTU21D;64715;44.760;37.678;2023-04-27T02:39:33;10.72;66.89
74923;HTU21D;64715;44.760;37.678;2023-04-27T02:40:34;10.72;66.72
74923;HTU21D;64715;44.760;37.678;2023-04-27T02:41:35;10.72;66.78
74923;HTU21D;64715;44.760;37.678;2023-04-27T02:42:36;10.74;66.74
74923;HTU21D;64715;44.760;37.678;2023-04-27T02:43:38;10.75;66.76
74923;HTU21D;64715;44.760;37.678;2023-04-27T02:44:40;10.77;66.79
74923;HTU21D;64715;44.760;37.678;2023-04-27T02:45:41;10.80;66.76
74923;HTU21D;64715;44.760;37.678;2023-04-27T02:46:41;10.81;66.65
74923;HTU21D;64715;44.760;37.678;2023-04-27T02:47:43;10.84;66.71
74923;HTU21D;64715;44.760;37.678;2023-04-27T02:48:43;10.87;66.63
74923;HTU21D;64715;44.760;37.678;2023-04-27T02:49:45;10.90;66.86
74923;HTU21D;64715;44.760;37.678;2023-04-27T02:50:46;10.93;66.93
74923;HTU21D;64715;44.760;37.678;2023-04-27T02:51:47;10.97;66.78
74923;HTU21D;64715;44.760;37.678;2023-04-27T02:52:48;11.03;66.64
74923;HTU21D;64715;44.760;37.678;2023-04-27T02:53:49;11.11;66.72
74923;HTU21D;64715;44.760;37.678;2023-04-27T02:54:50;11.19;67.14
74923;HTU21D;64715;44.760;37.678;2023-04-27T02:55:51;11.32;67.01
74923;HTU21D;64715;44.760;37.678;2023-04-27T02:56:51;11.52;67.48
74923;HTU21D;64715;44.760;37.678;2023-04-27T02:57:52;11.74;67.67
74923;HTU21D;64715;44.760;37.678;2023-04-27T02:58:53;11.96;67.35
74923;HTU21D;64715;44.760;37.678;2023-04-27T02:59:54;12.19;67.22
74923;HTU21D;64715;44.760;37.678;2023-04-27T03:00:56;12.45;67.10
74923;HTU21D;64715;44.760;37.678;2023-04-27T03:01:57;12.71;67.05
74923;HTU21D;64715;44.760;37.678;2023-04-27T03:02:58;12.99;66.93
74923;HTU21D;64715;44.760;37.678;2023-04-27T03:03:59;13.27;66.63
74923;HTU21D;64715;44.760;37.678;2023-04-27T03:05:00;13.61;66.38
74923;HTU21D;64715;44.760;37.678;2023-04-27T03:06:01;13.96;66.20
74923;HTU21D;64715;44.760;37.678;2023-04-27T03:07:03;14.37;66.11
74923;HTU21D;64715;44.760;37.678;2023-04-27T03:08:04;14.80;65.69
74923;HTU21D;64715;44.760;37.678;2023-04-27T03:09:06;15.21;64.99
74923;HTU21D;64715;44.760;37.678;2023-04-27T03:10:10;15.61;64.23
74923;HTU21D;64715;44.760;37.678;2023-04-27T03:11:11;15.91;63.62
74923;HTU21D;64715;44.760;37.678;2023-04-27T03:12:13;16.19;62.93
74923;HTU21D;64715;44.760;37.678;2023-04-27T03:13:14;16.36;62.27
74923;HTU21D;64715;44.760;37.678;2023-04-27T03:14:17;16.50;61.97
74923;HTU21D;64715;44.760;37.678;2023-04-27T03:15:18;16.62;61.23
74923;HTU21D;64715;44.760;37.678;2023-04-27T03:16:19;16.73;61.05
74923;HTU21D;64715;44.760;37.678;2023-04-27T03:17:20;16.79;60.66
74923;HTU21D;64715;44.760;37.678;2023-04-27T03:18:21;16.88;60.41
74923;HTU21D;64715;44.760;37.678;2023-04-27T03:19:22;16.93;60.02
74923;HTU21D;64715;44.760;37.678;2023-04-27T03:20:24;16.95;59.79
74923;HTU21D;64715;44.760;37.678;2023-04-27T03:21:27;17.01;59.64
74923;HTU21D;64715;44.760;37.678;2023-04-27T03:22:28;17.06;59.26
74923;HTU21D;64715;44.760;37.678;2023-04-27T03:23:30;17.10;59.06
74923;HTU21D;64715;44.760;37.678;2023-04-27T03:24:31;17.16;59.05
74923;HTU21D;64715;44.760;37.678;2023-04-27T03:25:32;17.21;58.78
74923;HTU21D;64715;44.760;37.678;2023-04-27T03:26:33;17.26;58.72
74923;HTU21D;64715;44.760;37.678;2023-04-27T03:27:34;17.31;58.32
74923;HTU21D;64715;44.760;37.678;2023-04-27T03:28:37;17.34;58.20
74923;HTU21D;64715;44.760;37.678;2023-04-27T03:29:38;17.36;58.22
74923;HTU21D;64715;44.760;37.678;2023-04-27T03:30:39;17.39;57.84
74923;HTU21D;64715;44.760;37.678;2023-04-27T03:31:40;17.44;57.88
74923;HTU21D;64715;44.760;37.678;2023-04-27T03:32:41;17.50;57.61
74923;HTU21D;64715;44.760;37.678;2023-04-27T03:33:42;17.61;57.93
74923;HTU21D;64715;44.760;37.678;2023-04-27T03:34:43;17.69;57.70
74923;HTU21D;64715;44.760;37.678;2023-04-27T03:35:53;17.84;57.45
74923;HTU21D;64715;44.760;37.678;2023-04-27T03:36:54;17.97;57.35
74923;HTU21D;64715;44.760;37.678;2023-04-27T03:37:56;18.09;56.84
74923;HTU21D;64715;44.760;37.678;2023-04-27T03:38:57;18.19;56.53
74923;HTU21D;64715;44.760;37.678;2023-04-27T03:39:58;18.25;56.46
74923;HTU21D;64715;44.760;37.678;2023-04-27T03:40:59;18.26;56.20
74923;HTU21D;64715;44.760;37.678;2023-04-27T03:42:00;18.27;55.84
74923;HTU21D;64715;44.760;37.678;2023-04-27T03:43:02;18.27;55.74
74923;HTU21D;64715;44.760;37.678;2023-04-27T03:44:03;18.24;55.65
74923;HTU21D;64715;44.760;37.678;2023-04-27T03:45:07;18.25;55.53
74923;HTU21D;64715;44.760;37.678;2023-04-27T03:46:10;18.25;55.49
74923;HTU21D;64715;44.760;37.678;2023-04-27T03:47:11;18.26;55.53
74923;HTU21D;64715;44.760;37.678;2023-04-27T03:48:14;18.32;55.54
74923;HTU21D;64715;44.760;37.678;2023-04-27T03:49:15;18.36;55.27
74923;HTU21D;64715;44.760;37.678;2023-04-27T03:50:16;18.40;55.10
74923;HTU21D;64715;44.760;37.678;2023-04-27T03:51:17;18.42;55.18
74923;HTU21D;64715;44.760;37.678;2023-04-27T03:52:20;18.42;55.07
74923;HTU21D;64715;44.760;37.678;2023-04-27T03:53:21;18.43;55.14
74923;HTU21D;64715;44.760;37.678;2023-04-27T03:54:23;18.44;55.01
74923;HTU21D;64715;44.760;37.678;2023-04-27T03:55:24;18.43;54.97
74923;HTU21D;64715;44.760;37.678;2023-04-27T03:56:26;18.44;55.08
74923;HTU21D;64715;44.760;37.678;2023-04-27T03:57:27;18.46;54.90
74923;HTU21D;64715;44.760;37.678;2023-04-27T03:58:28;18.44;54.88
74923;HTU21D;64715;44.760;37.678;2023-04-27T03:59:51;18.42;54.84
74923;HTU21D;64715;44.760;37.678;2023-04-27T04:00:52;18.41;54.85
74923;HTU21D;64715;44.760;37.678;2023-04-27T04:01:54;18.38;54.96
74923;HTU21D;64715;44.760;37.678;2023-04-27T04:02:55;18.35;54.86
74923;HTU21D;64715;44.760;37.678;2023-04-27T04:03:57;18.34;54.96
74923;HTU21D;64715;44.760;37.678;2023-04-27T04:04:58;18.30;54.83
74923;HTU21D;64715;44.760;37.678;2023-04-27T04:05:59;18.32;54.78
74923;HTU21D;64715;44.760;37.678;2023-04-27T04:07:00;18.30;54.86
74923;HTU21D;64715;44.760;37.678;2023-04-27T04:08:01;18.27;54.53
74923;HTU21D;64715;44.760;37.678;2023-04-27T04:09:03;18.25;54.78
74923;HTU21D;64715;44.760;37.678;2023-04-27T04:10:06;18.24;54.62
74923;HTU21D;64715;44.760;37.678;2023-04-27T04:11:07;18.22;54.65
74923;HTU21D;64715;44.760;37.678;2023-04-27T04:12:09;18.23;54.82
74923;HTU21D;64715;44.760;37.678;2023-04-27T04:13:10;18.23;54.75
74923;HTU21D;64715;44.760;37.678;2023-04-27T04:14:11;18.24;54.75
74923;HTU21D;64715;44.760;37.678;2023-04-27T04:15:14;18.25;54.94
74923;HTU21D;64715;44.760;37.678;2023-04-27T04:16:16;18.29;54.74
74923;HTU21D;64715;44.760;37.678;2023-04-27T04:17:17;18.36;54.82
74923;HTU21D;64715;44.760;37.678;2023-04-27T04:18:18;18.41;54.74
74923;HTU21D;64715;44.760;37.678;2023-04-27T04:19:19;18.43;54.81
74923;HTU21D;64715;44.760;37.678;2023-04-27T04:20:20;18.49;54.49
74923;HTU21D;64715;44.760;37.678;2023-04-27T04:21:21;18.54;54.51
74923;HTU21D;64715;44.760;37.678;2023-04-27T04:22:22;18.61;54.47
74923;HTU21D;64715;44.760;37.678;2023-04-27T04:23:23;18.69;54.56
74923;HTU21D;64715;44.760;37.678;2023-04-27T04:24:24;18.79;54.56
74923;HTU21D;64715;44.760;37.678;2023-04-27T04:25:26;18.92;54.52
74923;HTU21D;64715;44.760;37.678;2023-04-27T04:26:27;19.05;54.31
74923;HTU21D;64715;44.760;37.678;2023-04-27T04:27:28;19.16;54.24
74923;HTU21D;64715;44.760;37.678;2023-04-27T04:28:31;19.31;53.97
74923;HTU21D;64715;44.760;37.678;2023-04-27T04:29:32;19.48;53.88
74923;HTU21D;64715;44.760;37.678;2023-04-27T04:30:33;19.62;53.45
74923;HTU21D;64715;44.760;37.678;2023-04-27T04:31:34;19.81;53.25
74923;HTU21D;64715;44.760;37.678;2023-04-27T04:32:35;19.99;53.14
74923;HTU21D;64715;44.760;37.678;2023-04-27T04:33:40;20.18;52.36
74923;HTU21D;64715;44.760;37.678;2023-04-27T04:34:41;20.35;51.98
74923;HTU21D;64715;44.760;37.678;2023-04-27T04:35:42;20.46;51.66
74923;HTU21D;64715;44.760;37.678;2023-04-27T04:36:44;20.58;51.12
74923;HTU21D;64715;44.760;37.678;2023-04-27T04:37:45;20.66;50.88
74923;HTU21D;64715;44.760;37.678;2023-04-27T04:38:47;20.74;50.62
74923;HTU21D;64715;44.760;37.678;2023-04-27T04:39:49;20.83;50.46
74923;HTU21D;64715;44.760;37.678;2023-04-27T04:40:50;20.90;50.18
74923;HTU21D;64715;44.760;37.678;2023-04-27T04:41:52;20.99;49.85
74923;HTU21D;64715;44.760;37.678;2023-04-27T04:42:53;21.09;49.58
74923;HTU21D;64715;44.760;37.678;2023-04-27T04:43:54;21.23;49.28
74923;HTU21D;64715;44.760;37.678;2023-04-27T04:44:55;21.42;48.95
74923;HTU21D;64715;44.760;37.678;2023-04-27T04:45:58;21.61;48.65
74923;HTU21D;64715;44.760;37.678;2023-04-27T04:46:59;21.80;48.34
74923;HTU21D;64715;44.760;37.678;2023-04-27T04:48:00;21.99;47.79
74923;HTU21D;64715;44.760;37.678;2023-04-27T04:49:01;22.22;47.46
74923;HTU21D;64715;44.760;37.678;2023-04-27T04:50:03;22.42;46.96
74923;HTU21D;64715;44.760;37.678;2023-04-27T04:51:06;22.62;46.40
74923;HTU21D;64715;44.760;37.678;2023-04-27T04:52:08;22.83;46.04
74923;HTU21D;64715;44.760;37.678;2023-04-27T04:53:09;23.01;45.57
74923;HTU21D;64715;44.760;37.678;2023-04-27T04:54:10;23.23;45.03
74923;HTU21D;64715;44.760;37.678;2023-04-27T04:55:12;23.44;44.52
74923;HTU21D;64715;44.760;37.678;2023-04-27T04:56:13;23.68;44.06
74923;HTU21D;64715;44.760;37.678;2023-04-27T04:57:14;23.94;43.51
74923;HTU21D;64715;44.760;37.678;2023-04-27T04:58:15;24.21;43.22
74923;HTU21D;64715;44.760;37.678;2023-04-27T04:59:16;24.50;42.91
74923;HTU21D;64715;44.760;37.678;2023-04-27T05:00:17;24.79;42.61
74923;HTU21D;64715;44.760;37.678;2023-04-27T05:01:18;25.05;41.94
74923;HTU21D;64715;44.760;37.678;2023-04-27T05:02:19;25.23;41.52
74923;HTU21D;64715;44.760;37.678;2023-04-27T05:03:21;25.40;40.96
74923;HTU21D;64715;44.760;37.678;2023-04-27T05:04:22;25.54;40.69
74923;HTU21D;64715;44.760;37.678;2023-04-27T05:05:23;25.62;40.32
74923;HTU21D;64715;44.760;37.678;2023-04-27T05:06:23;25.67;39.88
74923;HTU21D;64715;44.760;37.678;2023-04-27T05:07:24;25.72;39.58
74923;HTU21D;64715;44.760;37.678;2023-04-27T05:08:26;25.72;39.74
74923;HTU21D;64715;44.760;37.678;2023-04-27T05:09:27;25.69;39.50
74923;HTU21D;64715;44.760;37.678;2023-04-27T05:10:28;25.61;39.30
74923;HTU21D;64715;44.760;37.678;2023-04-27T05:11:29;25.50;39.28
74923;HTU21D;64715;44.760;37.678;2023-04-27T05:12:30;25.35;39.04
74923;HTU21D;64715;44.760;37.678;2023-04-27T05:13:31;25.13;38.89
74923;HTU21D;64715;44.760;37.678;2023-04-27T05:14:32;24.95;39.06
74923;HTU21D;64715;44.760;37.678;2023-04-27T05:15:33;24.77;39.19
74923;HTU21D;64715;44.760;37.678;2023-04-27T05:16:36;24.61;39.14
74923;HTU21D;64715;44.760;37.678;2023-04-27T05:17:37;24.47;39.19
74923;HTU21D;64715;44.760;37.678;2023-04-27T05:18:38;24.30;39.38
74923;HTU21D;64715;44.760;37.678;2023-04-27T05:19:39;24.20;39.72
74923;HTU21D;64715;44.760;37.678;2023-04-27T05:20:40;24.10;39.76
74923;HTU21D;64715;44.760;37.678;2023-04-27T05:21:41;23.98;39.68
74923;HTU21D;64715;44.760;37.678;2023-04-27T05:22:42;23.88;39.65
74923;HTU21D;64715;44.760;37.678;2023-04-27T05:23:43;23.79;39.67
74923;HTU21D;64715;44.760;37.678;2023-04-27T05:24:44;23.72;39.77
74923;HTU21D;64715;44.760;37.678;2023-04-27T05:25:45;23.66;39.72
74923;HTU21D;64715;44.760;37.678;2023-04-27T05:26:46;23.57;39.70
74923;HTU21D;64715;44.760;37.678;2023-04-27T05:27:47;23.52;39.85
74923;HTU21D;64715;44.760;37.678;2023-04-27T05:28:48;23.42;39.68
74923;HTU21D;64715;44.760;37.678;2023-04-27T05:29:49;23.38;39.93
74923;HTU21D;64715;44.760;37.678;2023-04-27T05:30:50;23.30;40.08
74923;HTU21D;64715;44.760;37.678;2023-04-27T05:31:51;23.25;40.34
74923;HTU21D;64715;44.760;37.678;2023-04-27T05:32:53;23.21;40.14
74923;HTU21D;64715;44.760;37.678;2023-04-27T05:33:54;23.17;40.13
74923;HTU21D;64715;44.760;37.678;2023-04-27T05:34:55;23.13;40.09
74923;HTU21D;64715;44.760;37.678;2023-04-27T05:35:56;23.07;40.12
74923;HTU21D;64715;44.760;37.678;2023-04-27T05:36:57;23.03;40.11
74923;HTU21D;64715;44.760;37.678;2023-04-27T05:37:59;22.99;40.23
74923;HTU21D;64715;44.760;37.678;2023-04-27T05:39:01;22.99;40.33
74923;HTU21D;64715;44.760;37.678;2023-04-27T05:40:02;22.99;40.48
74923;HTU21D;64715;44.760;37.678;2023-04-27T05:41:05;23.02;40.63
74923;HTU21D;64715;44.760;37.678;2023-04-27T05:42:06;23.07;40.39
74923;HTU21D;64715;44.760;37.678;2023-04-27T05:43:07;23.11;40.31
74923;HTU21D;64715;44.760;37.678;2023-04-27T05:44:08;23.16;40.61
74923;HTU21D;64715;44.760;37.678;2023-04-27T05:45:10;23.22;40.52
74923;HTU21D;64715;44.760;37.678;2023-04-27T05:46:14;23.30;40.36
74923;HTU21D;64715;44.760;37.678;2023-04-27T05:47:15;23.36;40.10
74923;HTU21D;64715;44.760;37.678;2023-04-27T05:48:17;23.40;39.85
74923;HTU21D;64715;44.760;37.678;2023-04-27T05:49:18;23.44;39.68
74923;HTU21D;64715;44.760;37.678;2023-04-27T05:50:19;23.49;39.60
74923;HTU21D;64715;44.760;37.678;2023-04-27T05:51:20;23.51;39.49
74923;HTU21D;64715;44.760;37.678;2023-04-27T05:52:21;23.50;39.20
74923;HTU21D;64715;44.760;37.678;2023-04-27T05:53:22;23.47;38.87
74923;HTU21D;64715;44.760;37.678;2023-04-27T05:54:23;23.44;38.84
74923;HTU21D;64715;44.760;37.678;2023-04-27T05:55:23;23.39;38.90
74923;HTU21D;64715;44.760;37.678;2023-04-27T05:56:24;23.36;38.85
74923;HTU21D;64715;44.760;37.678;2023-04-27T05:57:26;23.31;39.12
74923;HTU21D;64715;44.760;37.678;2023-04-27T05:58:27;23.28;38.98
74923;HTU21D;64715;44.760;37.678;2023-04-27T05:59:28;23.24;38.96
74923;HTU21D;64715;44.760;37.678;2023-04-27T06:00:29;23.17;38.82
74923;HTU21D;64715;44.760;37.678;2023-04-27T06:01:30;23.13;39.02
74923;HTU21D;64715;44.760;37.678;2023-04-27T06:02:31;23.08;38.98
74923;HTU21D;64715;44.760;37.678;2023-04-27T06:03:32;23.03;38.82
74923;HTU21D;64715;44.760;37.678;2023-04-27T06:04:33;23.01;38.84
74923;HTU21D;64715;44.760;37.678;2023-04-27T06:05:35;22.99;38.85
74923;HTU21D;64715;44.760;37.678;2023-04-27T06:06:37;22.99;39.02
74923;HTU21D;64715;44.760;37.678;2023-04-27T06:07:38;23.01;39.07
74923;HTU21D;64715;44.760;37.678;2023-04-27T06:08:39;23.01;39.30
74923;HTU21D;64715;44.760;37.678;2023-04-27T06:09:41;23.05;39.46
74923;HTU21D;64715;44.760;37.678;2023-04-27T06:10:43;23.06;39.30
74923;HTU21D;64715;44.760;37.678;2023-04-27T06:11:45;23.09;39.59
74923;HTU21D;64715;44.760;37.678;2023-04-27T06:12:47;23.10;39.50
74923;HTU21D;64715;44.760;37.678;2023-04-27T06:13:48;23.10;39.52
74923;HTU21D;64715;44.760;37.678;2023-04-27T06:14:49;23.10;39.55
74923;HTU21D;64715;44.760;37.678;2023-04-27T06:15:50;23.11;39.26
74923;HTU21D;64715;44.760;37.678;2023-04-27T06:16:51;23.12;39.44